Naples Municipal Airport Naples US
ICAO: KAPF
IATA: APF
Category: Medium
Scheduled Services: No

Elevation: 8 ft
TransAlt. 18000 ft.

Airport Communications:
FORT MYERS APP/DEP:119.75
ATIS:134.225
CLNC DEL:118
CTAF:128.5
GND:121.6
MIAMI RDO:123.6
TWR:128.5

KAPF Zoom In..

If you have problems with the map follow the link
https://www.worldairports.se/pages/airport.php?
ICAO=KAPF

Runways:

(A) RW 05 length 6600 ft width 150 ft
---- / hdg 47

(B) RW 14 length 5000 ft width 100 ft
---- / hdg 137

(C) RW 23 length 6600 ft width 150 ft
---- / hdg 227

(D) RW 32 length 5000 ft width 100 ft
---- / hdg 317

Location; KAPF
Day. 22 / Time. 11.53 Zulu
* Altimeter: 30.07
* Temperature: 23° c. 73.4°f.
* Wind from: 070° Speed 08 kn.
Dewpoint: 18° c.
Visibility: 10 Statute Miles.
Clouds: Scattered 5000 ft.
Clouds: Overcast 8000 ft.

KAPF 221153Z 07008KT 10SM SCT050 OVC080 23/18 A3007 RMK AO2 SLP181 70012 T02280183 10228 20217 51014


Wind From 070°
Speed 08 kn.

 
 
jpsmedia.com for Web Design worldairports.se 2018   terms of use